Burden, Kansas
Current Conditions -  °F | °C
As of 6:11 AM on Sunday 23 Nov 2014 (Local Time) from KWLD Reporting Station
Overcast Overcast  
Wind Chill: 56°   Ceiling: 1600
Heat Index: 56°   Visibility: 10mi
Dew Point: 53°   Wind: 16mph
Humidity: 90%   Direction: 170°S
Pressure: 29.49"   Gusts: NA
Location:  37.31°N, 96.75°W
Report Text: KWLD 231211Z AUTO 17014KT 10SM FEW010 BKN016 OVC021 13/12 A2949 RMK AO2 T01330117
Loading
Personal Weather Stations






























Interactive Weather Map New forecast layout! Learn more

10-Day Weather Forecast

Advertisements
Track Severe Weather on mobile